Florennes Air Base, Belgique

07:59 CET le 04 Mars 2015 (GMT +0100)
IRGIONWA38 | Change Station
CLOSE
Current Station
Stations météorologiques personnelles
Location: Le Roux, RGION WALLONNE
Altitude: 545 ft
Stations météo à proximité

Alt. 545 ft 50.40 °N, 4.63 °E | Updated 2 minutes ago

Clear
Ciel dégagé
32.9 ° F
Paraît 28 ° F
N
4.7
Vent Variable Vent de OSO

Aujourd'hui
Haut(e) -- | Bas -- ° F
--% Risque de précip.
Hier
Haut(e) -- | Bas -- ° F
Precip. -- pouce
7:19 AM 6:27 PM
Lune gibbeuse croissante, 98% visible
Pression 30.24 pouce
Visibilité -9999.0 Miles terrestres
Nuages
Refroidissement éolien 28 ° F
Point de rosée 30 ° F
Humidité 89%
Précipitations 0.04 pouce
Profondeur de la couche neigeuse Non disponible.
UV Non disponible.
Pollen Non disponible.
Qualité de l'air Non disponible.
Flu Activity Non disponible.
METAR EBCI 040650Z 24009KT CAVOK 01/M01 Q1024 NOSIG

More Conditions Fewer Conditions

Pression 30.24 pouce
Visibilité -9999.0 Miles terrestres
Nuages
Refroidissement éolien 28 ° F
Point de rosée 30 ° F
Humidité 89%
Précipitations 0.04 pouce
Profondeur de la couche neigeuse Non disponible.
UV Non disponible.
Pollen Non disponible.
Qualité de l'air Non disponible.
Flu Activity Non disponible.
METAR EBCI 040650Z 24009KT CAVOK 01/M01 Q1024 NOSIG

More Conditions Fewer Conditions

10-Day Weather Forecast

Almanac

Astronomie

Mar. 04, 2015 Lever Coucher
Temps réel
Crépuscule civil
Crépuscule nautique
Crépuscule astronomique
Lune
Durée de lumière visible
Longueur du jour
Tomorrow will be .
, % of the Moon is Illuminated

Extrêmes aujourd'hui

Country Highs Country Lows

Community

WunderPhotos

Upload Photos

1,802,402 Photos téléchargées !

WunderBlogs® & News

Nearby

Qualité de l'air

  Qualité de l'air Indice de la qualité de l'air Polluant
Not available.

Épaisseur de neige

Station Depth Altitude

Activité sismique

Ville Distance Mag. Time & Date
Minimum magnitude displayed is 2.5.

Températures des eaux côtières

Lieu Température

Stations météo à proximité